Time;durP1;ratioP1;P1;durP2;ratioP2;P2;SDS_P1;SDS_P2;PMS_P1;PMS_P2;Temp;Humidity;BMP_temperature;BMP_pressure;BME280_temperature;BME280_humidity;BME280_pressure;Samples;Min_cycle;Max_cycle;Signal;HPM_P1;HPM_P2
2022/04/16 00:01:44;;;;;;;15.87;8.93;;;;;;;15.41;57.46;102113.31;4976056;28;20434;-65
2022/04/16 00:04:11;;;;;;;13.85;8.20;;;;;;;15.66;56.86;102112.75;4959172;28;20066;-65
2022/04/16 00:06:39;;;;;;;13.82;8.27;;;;;;;15.75;56.53;102110.88;4975126;28;20509;-66
2022/04/16 00:09:06;;;;;;;15.43;9.32;;;;;;;15.76;56.43;102106.94;4973087;28;20051;-65
2022/04/16 00:11:33;;;;;;;16.83;9.20;;;;;;;15.61;56.99;102106.47;4976262;28;20050;-65
2022/04/16 00:14:03;;;;;;;19.73;9.77;;;;;;;15.55;57.09;102107.75;4975955;28;20057;-65
2022/04/16 00:16:32;;;;;;;17.35;9.75;;;;;;;15.71;56.83;102109.00;4975823;28;20410;-64
2022/04/16 00:18:59;;;;;;;15.02;9.40;;;;;;;15.35;57.98;102110.94;4971134;28;20055;-65
2022/04/16 00:21:27;;;;;;;16.13;9.23;;;;;;;15.53;57.86;102110.00;4962661;28;20053;-65
2022/04/16 00:23:54;;;;;;;19.60;10.05;;;;;;;15.48;57.82;102105.38;4976428;28;20055;-65
2022/04/16 00:26:21;;;;;;;17.73;9.27;;;;;;;14.97;59.24;102115.94;4956508;28;20062;-65
2022/04/16 00:28:50;;;;;;;16.40;8.95;;;;;;;14.77;60.38;102112.75;4970017;28;20085;-66
2022/04/16 00:31:17;;;;;;;16.60;9.35;;;;;;;14.78;60.21;102108.84;4966576;28;20058;-66
2022/04/16 00:33:46;;;;;;;16.88;9.80;;;;;;;14.48;61.42;102111.06;4959153;28;20077;-65
2022/04/16 00:36:14;;;;;;;16.63;9.73;;;;;;;14.79;60.71;102107.69;4974434;28;20055;-65
2022/04/16 00:38:42;;;;;;;16.77;9.57;;;;;;;14.86;60.56;102108.94;4969787;28;20051;-65
2022/04/16 00:41:12;;;;;;;14.02;9.80;;;;;;;15.17;59.72;102109.94;4975833;28;20054;-64
2022/04/16 00:43:40;;;;;;;14.02;9.02;;;;;;;14.91;60.29;102108.00;4958398;28;20059;-65
2022/04/16 00:46:07;;;;;;;18.35;9.15;;;;;;;14.84;60.46;102105.63;4968644;28;20054;-65
2022/04/16 00:48:35;;;;;;;15.52;10.07;;;;;;;14.67;60.96;102099.88;4945770;28;20054;-65
2022/04/16 00:51:02;;;;;;;15.98;9.20;;;;;;;14.77;60.77;102105.22;4957659;28;20059;-65
2022/04/16 00:53:30;;;;;;;15.68;10.13;;;;;;;14.55;61.59;102105.94;4975957;28;20055;-65
2022/04/16 00:55:58;;;;;;;16.40;9.40;;;;;;;14.42;62.21;102100.34;4966079;28;20055;-65
2022/04/16 00:58:25;;;;;;;16.17;10.30;;;;;;;14.57;61.79;102095.34;4957562;28;20054;-65
2022/04/16 01:00:53;;;;;;;18.00;10.02;;;;;;;14.64;61.84;102097.72;4974780;28;20602;-65
2022/04/16 01:03:20;;;;;;;20.38;10.93;;;;;;;14.77;61.48;102098.88;4963701;28;20058;-65
2022/04/16 01:05:47;;;;;;;18.88;10.02;;;;;;;14.89;61.07;102101.97;4974348;28;20051;-65
2022/04/16 01:08:19;;;;;;;13.90;10.18;;;;;;;14.60;62.01;102096.69;4934597;28;20050;-70
2022/04/16 01:10:46;;;;;;;16.52;10.15;;;;;;;14.68;61.77;102099.56;4975635;28;20050;-70
2022/04/16 01:13:14;;;;;;;18.00;9.90;;;;;;;14.82;61.40;102104.31;4974350;28;20062;-70
2022/04/16 01:15:42;;;;;;;15.38;10.68;;;;;;;14.49;61.91;102100.78;4975312;28;20055;-70
2022/04/16 01:18:12;;;;;;;18.60;10.70;;;;;;;14.19;63.15;102093.81;4975208;28;20430;-70
2022/04/16 01:20:41;;;;;;;23.48;11.68;;;;;;;14.01;63.99;102089.16;4973843;28;20062;-70
2022/04/16 01:23:08;;;;;;;19.20;10.65;;;;;;;14.27;63.34;102103.41;4972722;28;20054;-70
2022/04/16 01:25:36;;;;;;;17.75;10.40;;;;;;;14.33;63.16;102100.25;4968547;28;20645;-70
2022/04/16 01:28:04;;;;;;;16.38;10.43;;;;;;;14.29;63.58;102104.78;4966219;28;20058;-66
2022/04/16 01:30:32;;;;;;;16.98;10.45;;;;;;;14.09;64.03;102095.94;4975567;28;20417;-65
2022/04/16 01:33:01;;;;;;;18.23;11.02;;;;;;;13.96;64.75;102102.28;4974680;28;20055;-66
2022/04/16 01:35:29;;;;;;;17.25;10.70;;;;;;;13.95;64.50;102106.16;4974170;28;20402;-70
2022/04/16 01:37:57;;;;;;;20.08;11.18;;;;;;;13.85;65.18;102104.38;4974040;28;20051;-65
2022/04/16 01:40:27;;;;;;;17.70;11.25;;;;;;;13.91;64.89;102100.41;4975485;28;20050;-70
2022/04/16 01:42:56;;;;;;;20.55;11.80;;;;;;;13.96;64.90;102110.59;4942460;28;20035;-70
2022/04/16 01:45:26;;;;;;;17.27;10.88;;;;;;;14.02;64.45;102101.03;4978856;28;20054;-71
2022/04/16 01:47:54;;;;;;;26.60;11.68;;;;;;;13.98;64.85;102105.56;4973866;28;20077;-70
2022/04/16 01:50:22;;;;;;;20.55;11.80;;;;;;;13.91;65.17;102107.91;4961820;28;20058;-66
2022/04/16 01:52:49;;;;;;;19.92;11.43;;;;;;;13.97;65.13;102101.13;4977564;28;20039;-65
2022/04/16 01:55:16;;;;;;;20.80;12.65;;;;;;;13.89;65.03;102102.66;4978340;28;20433;-65
2022/04/16 01:57:43;;;;;;;21.40;12.85;;;;;;;14.04;64.60;102109.88;4978771;28;20405;-65
2022/04/16 02:00:13;;;;;;;19.88;12.63;;;;;;;14.03;64.79;102114.63;4976571;28;20070;-66
2022/04/16 02:02:41;;;;;;;18.97;12.33;;;;;;;14.04;64.99;102115.41;4953747;28;20070;-65
2022/04/16 02:05:09;;;;;;;22.52;12.80;;;;;;;13.85;65.36;102117.41;4978897;28;20665;-69
2022/04/16 02:07:38;;;;;;;19.08;12.60;;;;;;;13.93;65.11;102109.22;4978566;28;20042;-70
2022/04/16 02:10:06;;;;;;;24.52;13.60;;;;;;;13.98;65.05;102111.91;4949125;28;20055;-69
2022/04/16 02:12:35;;;;;;;22.23;12.70;;;;;;;13.90;65.26;102115.38;4977414;28;20051;-69
2022/04/16 02:15:03;;;;;;;21.42;13.43;;;;;;;13.62;66.56;102118.31;4975610;28;20070;-70
2022/04/16 02:17:33;;;;;;;26.50;14.10;;;;;;;13.48;67.31;102104.41;4978832;28;20055;-70
2022/04/16 02:20:00;;;;;;;25.60;14.38;;;;;;;13.50;67.23;102110.47;4977123;28;20050;-70
2022/04/16 02:22:38;;;;;;;22.30;13.48;;;;;;;13.47;67.38;102109.13;4977728;28;20058;-64
2022/04/16 02:25:08;;;;;;;21.45;13.85;;;;;;;13.41;67.80;102104.78;4977428;28;20051;-70
2022/04/16 02:27:35;;;;;;;22.77;14.45;;;;;;;13.50;67.46;102107.69;4977587;28;20088;-70
2022/04/16 02:30:10;;;;;;;25.75;14.75;;;;;;;13.51;67.40;102106.59;4978089;28;20062;-71
2022/04/16 02:32:52;;;;;;;24.75;15.77;;;;;;;13.53;67.16;102113.44;4977814;28;20047;-70
2022/04/16 02:35:21;;;;;;;22.13;14.80;;;;;;;13.60;67.18;102118.59;4970243;28;20549;-65
2022/04/16 02:37:49;;;;;;;24.20;15.50;;;;;;;13.48;67.35;102109.94;4966243;28;20425;-65
2022/04/16 02:40:17;;;;;;;26.60;15.88;;;;;;;13.40;68.19;102113.38;4965197;28;20103;-64
2022/04/16 02:42:45;;;;;;;24.02;15.23;;;;;;;13.39;67.96;102120.84;4970255;28;20047;-64
2022/04/16 02:48:00;;;;;;;27.05;15.43;;;;;;;13.62;67.48;102118.31;4975891;28;20054;-69
2022/04/16 02:50:28;;;;;;;25.20;15.85;;;;;;;13.60;66.84;102123.34;4960694;28;20047;-70
2022/04/16 02:52:56;;;;;;;25.42;15.02;;;;;;;13.62;66.84;102112.75;4957897;28;20530;-69
2022/04/16 02:55:24;;;;;;;26.05;16.73;;;;;;;13.64;67.07;102116.91;4960208;28;20085;-69
2022/04/16 02:57:51;;;;;;;24.55;15.00;;;;;;;13.44;67.54;102109.72;4944577;28;20047;-71
2022/04/16 03:00:20;;;;;;;23.92;16.17;;;;;;;13.42;67.59;102105.59;4977442;28;20073;-70
2022/04/16 03:02:49;;;;;;;24.13;15.65;;;;;;;13.51;67.29;102107.38;4968695;28;20050;-70
2022/04/16 03:05:17;;;;;;;26.35;16.67;;;;;;;13.26;68.23;102113.31;4963334;28;20063;-72
2022/04/16 03:07:45;;;;;;;22.02;16.23;;;;;;;13.33;67.88;102104.63;4969978;28;20059;-70
2022/04/16 03:10:12;;;;;;;24.92;16.85;;;;;;;13.45;67.35;102103.06;4975555;28;20058;-64
2022/04/16 03:12:47;;;;;;;24.13;15.70;;;;;;;13.19;68.00;102103.72;4956727;28;20058;-69
2022/04/16 03:18:03;;;;;;;27.30;17.67;;;;;;;13.21;67.84;102107.84;4977507;28;20074;-69
2022/04/16 03:20:32;;;;;;;29.17;17.25;;;;;;;13.16;68.12;102112.63;4966790;28;20058;-70
2022/04/16 03:23:00;;;;;;;27.25;16.85;;;;;;;13.23;67.94;102108.34;4976205;28;20062;-65
2022/04/16 03:25:30;;;;;;;34.97;17.67;;;;;;;13.05;68.45;102111.91;4976143;28;20050;-70
2022/04/16 03:27:58;;;;;;;26.58;17.30;;;;;;;13.18;68.30;102102.88;4975012;28;20042;-69
2022/04/16 03:30:25;;;;;;;27.67;17.63;;;;;;;13.21;67.91;102113.38;4957648;28;20055;-70
2022/04/16 03:32:53;;;;;;;24.48;16.85;;;;;;;13.48;67.10;102113.53;4975137;28;20422;-65
2022/04/16 03:35:22;;;;;;;27.13;15.95;;;;;;;13.51;66.78;102110.16;4977175;28;20043;-65
2022/04/16 03:37:50;;;;;;;25.65;16.65;;;;;;;13.06;67.77;102107.19;4977154;28;20055;-65
2022/04/16 03:40:19;;;;;;;25.25;16.52;;;;;;;13.29;67.56;102103.56;4956885;28;20051;-65
2022/04/16 03:43:00;;;;;;;25.65;16.70;;;;;;;13.39;67.13;102107.00;4974769;28;20066;-70
2022/04/16 03:45:29;;;;;;;26.08;17.17;;;;;;;13.54;66.23;102108.75;4973346;28;20051;-70
2022/04/16 03:47:58;;;;;;;25.60;17.52;;;;;;;12.84;67.89;102116.03;4968199;28;20617;-70
2022/04/16 03:50:26;;;;;;;26.65;17.30;;;;;;;12.58;69.38;102102.75;4976526;28;20066;-64
2022/04/16 03:52:55;;;;;;;24.88;17.25;;;;;;;12.82;68.67;102104.44;4959860;28;20062;-65
2022/04/16 04:00:58;;;;;;;24.95;17.23;;;;;;;13.09;67.72;102101.88;4961943;28;20441;-65
2022/04/16 04:03:26;;;;;;;26.02;19.00;;;;;;;12.64;68.75;102101.59;4939192;28;20051;-65
2022/04/16 04:05:54;;;;;;;26.40;18.30;;;;;;;12.69;68.67;102094.09;4958525;28;20146;-65
2022/04/16 04:08:22;;;;;;;26.58;18.42;;;;;;;12.44;69.41;102097.13;4975581;28;20062;-65
2022/04/16 04:10:49;;;;;;;23.42;17.60;;;;;;;12.73;68.37;102095.13;4976074;28;20061;-69
2022/04/16 04:13:17;;;;;;;32.65;17.58;;;;;;;12.85;67.85;102095.53;4975811;28;20047;-66
2022/04/16 04:15:44;;;;;;;26.27;16.92;;;;;;;12.85;67.89;102106.59;4946640;28;20051;-67
2022/04/16 04:18:12;;;;;;;26.65;17.42;;;;;;;12.40;68.84;102116.22;4959459;28;20050;-65
2022/04/16 04:20:39;;;;;;;24.30;17.48;;;;;;;12.56;68.35;102111.34;4975297;28;20055;-65
2022/04/16 04:23:07;;;;;;;27.98;18.17;;;;;;;12.50;68.83;102109.75;4975975;28;20061;-69
2022/04/16 04:25:34;;;;;;;23.92;17.67;;;;;;;12.56;68.98;102103.06;4976110;28;20413;-70
2022/04/16 04:28:01;;;;;;;33.85;18.48;;;;;;;12.83;67.91;102110.78;4976234;28;20046;-65
2022/04/16 04:30:30;;;;;;;25.30;17.40;;;;;;;12.88;66.90;102113.50;4975422;28;20065;-70
2022/04/16 04:32:58;;;;;;;27.80;17.90;;;;;;;12.67;67.49;102121.19;4942875;28;20054;-70
2022/04/16 04:35:26;;;;;;;27.40;17.55;;;;;;;12.42;68.30;102126.97;4974708;28;20059;-67
2022/04/16 04:37:54;;;;;;;24.67;17.30;;;;;;;12.47;68.68;102129.69;4975820;28;20059;-65
2022/04/16 04:40:21;;;;;;;26.70;18.40;;;;;;;12.28;69.09;102124.06;4960356;28;20445;-67
2022/04/16 04:42:49;;;;;;;25.67;18.02;;;;;;;12.42;68.63;102126.97;4933151;28;20050;-65
2022/04/16 04:45:17;;;;;;;25.60;17.27;;;;;;;12.58;67.98;102124.88;4956728;28;20064;-64
2022/04/16 04:47:44;;;;;;;25.52;17.80;;;;;;;12.81;67.33;102124.91;4951273;29;20047;-65
2022/04/16 04:50:12;;;;;;;27.75;17.85;;;;;;;12.57;67.92;102126.81;4952748;28;20126;-71
2022/04/16 04:52:40;;;;;;;25.70;18.17;;;;;;;12.56;67.98;102121.59;4975674;28;20482;-66
2022/04/16 04:55:12;;;;;;;29.25;18.65;;;;;;;12.61;67.42;102125.13;4958335;28;20414;-71
2022/04/16 04:57:42;;;;;;;29.20;18.65;;;;;;;12.41;68.47;102117.84;4975853;28;20055;-70
2022/04/16 05:00:11;;;;;;;;;;;;;;;12.19;69.22;102119.44;4967708;28;20059;-66
2022/04/16 05:02:42;;;;;;;26.70;18.80;;;;;;;12.42;68.74;102119.53;4949871;28;19930;-65
2022/04/16 05:05:10;;;;;;;27.35;19.20;;;;;;;12.29;68.73;102127.69;4974628;28;20059;-65
2022/04/16 05:07:38;;;;;;;30.80;18.70;;;;;;;12.04;70.11;102128.72;4958068;28;20058;-70
2022/04/16 05:10:06;;;;;;;27.25;18.63;;;;;;;11.94;70.57;102141.78;4975889;28;20058;-71
2022/04/16 05:12:33;;;;;;;31.50;19.83;;;;;;;11.83;71.00;102131.91;4974418;28;20061;-70
2022/04/16 05:15:02;;;;;;;32.63;20.55;;;;;;;12.11;70.50;102129.22;4970066;28;20054;-66
2022/04/16 05:17:29;;;;;;;28.08;19.58;;;;;;;12.04;70.25;102130.66;4959732;28;20050;-66
2022/04/16 05:19:56;;;;;;;34.13;19.67;;;;;;;12.27;69.37;102136.22;4962420;28;20047;-69
2022/04/16 05:22:24;;;;;;;29.60;19.30;;;;;;;12.39;69.30;102141.38;4970925;28;20053;-71
2022/04/16 05:24:51;;;;;;;31.20;20.02;;;;;;;12.16;69.97;102133.84;4975616;28;20562;-71
2022/04/16 05:27:18;;;;;;;31.25;20.33;;;;;;;12.21;69.63;102142.09;4979798;28;20410;-66
2022/04/16 05:29:56;;;;;;;31.30;19.48;;;;;;;12.04;70.15;102149.97;4962319;28;20486;-71
2022/04/16 05:32:24;;;;;;;31.13;19.88;;;;;;;12.09;70.23;102153.53;4974308;28;20047;-71
2022/04/16 05:34:55;;;;;;;29.85;20.00;;;;;;;12.30;69.76;102155.00;4942612;28;20418;-71
2022/04/16 05:37:23;;;;;;;27.48;19.90;;;;;;;12.30;69.50;102159.69;4946292;28;20513;-67
2022/04/16 05:39:50;;;;;;;29.42;20.85;;;;;;;11.98;70.44;102167.69;4978941;28;20058;-65
2022/04/16 05:42:18;;;;;;;29.42;20.70;;;;;;;12.06;70.32;102167.94;4974217;28;20055;-66
2022/04/16 05:44:45;;;;;;;31.90;20.58;;;;;;;12.39;69.16;102167.09;4953143;28;20482;-65
2022/04/16 05:47:15;;;;;;;29.70;19.60;;;;;;;12.38;69.12;102168.19;4976519;28;20058;-66
2022/04/16 05:49:42;;;;;;;32.28;20.05;;;;;;;12.46;68.78;102170.31;4978208;28;20498;-72
2022/04/16 05:52:10;;;;;;;32.50;20.85;;;;;;;12.17;69.50;102174.16;4926114;29;20074;-71
2022/04/16 05:54:38;;;;;;;30.40;21.75;;;;;;;12.24;69.71;102163.59;4942271;29;20055;-73
2022/04/16 05:57:06;;;;;;;35.25;21.08;;;;;;;12.19;69.74;102181.06;4976635;28;20059;-66
2022/04/16 05:59:33;;;;;;;27.33;20.27;;;;;;;12.23;69.75;102184.06;4977577;28;20055;-70
2022/04/16 06:02:01;;;;;;;29.73;20.38;;;;;;;12.45;68.50;102178.91;4977111;28;20054;-71
2022/04/16 06:04:28;;;;;;;31.52;21.77;;;;;;;12.14;69.35;102180.28;4975954;28;20039;-70
2022/04/16 06:06:55;;;;;;;31.10;21.20;;;;;;;12.08;70.17;102189.72;4977338;28;20046;-67
2022/04/16 06:09:23;;;;;;;29.67;21.75;;;;;;;11.96;70.45;102192.03;4978375;28;20058;-66
2022/04/16 06:11:52;;;;;;;28.08;20.92;;;;;;;12.07;69.97;102193.59;4975291;28;20047;-65
2022/04/16 06:14:19;;;;;;;37.80;23.20;;;;;;;11.99;70.62;102194.22;4976186;28;20055;-70
2022/04/16 06:16:47;;;;;;;35.92;22.63;;;;;;;11.81;70.75;102197.63;4961291;28;20485;-70
2022/04/16 06:19:14;;;;;;;32.47;21.67;;;;;;;11.90;70.43;102198.69;4978610;28;20047;-70
2022/04/16 06:21:41;;;;;;;30.75;22.70;;;;;;;12.13;70.01;102197.97;4945023;28;20051;-70
2022/04/16 06:24:08;;;;;;;31.63;23.17;;;;;;;12.01;69.90;102194.75;4978191;28;20433;-70
2022/04/16 06:26:36;;;;;;;33.80;22.67;;;;;;;11.92;70.42;102196.47;4966366;28;20051;-71
2022/04/16 06:29:03;;;;;;;31.55;23.35;;;;;;;12.04;69.88;102196.94;4964597;28;20050;-71
2022/04/16 06:31:30;;;;;;;33.90;23.63;;;;;;;11.87;70.64;102202.03;4971174;28;20058;-70
2022/04/16 06:33:57;;;;;;;32.85;23.00;;;;;;;11.63;71.76;102203.78;4975533;28;20509;-70
2022/04/16 06:36:26;;;;;;;32.25;23.33;;;;;;;11.90;71.24;102198.69;4960338;28;20061;-71
2022/04/16 06:38:53;;;;;;;34.90;23.13;;;;;;;11.91;70.81;102200.31;4976571;28;20043;-71
2022/04/16 06:41:20;;;;;;;35.35;23.98;;;;;;;12.10;69.83;102204.88;4960907;28;20500;-70
2022/04/16 06:43:48;;;;;;;36.38;24.33;;;;;;;12.18;69.40;102201.53;4968513;28;20047;-65
2022/04/16 06:46:15;;;;;;;35.85;23.58;;;;;;;12.08;69.56;102196.06;4951084;28;20070;-65
2022/04/16 06:48:42;;;;;;;40.50;24.35;;;;;;;12.15;69.59;102199.31;4973117;28;20051;-65
2022/04/16 06:51:10;;;;;;;31.98;22.73;;;;;;;12.22;69.44;102190.72;4956698;28;20061;-65
2022/04/16 06:53:37;;;;;;;32.20;23.70;;;;;;;12.36;68.97;102195.28;4956500;28;20494;-65
2022/04/16 06:56:05;;;;;;;35.17;23.40;;;;;;;12.63;67.79;102189.22;4977786;28;20066;-65
2022/04/16 06:58:32;;;;;;;39.17;25.08;;;;;;;12.16;68.68;102200.97;4976979;28;20419;-65
2022/04/16 07:00:59;;;;;;;32.25;23.58;;;;;;;12.12;68.67;102199.06;4954674;28;20043;-66
2022/04/16 07:03:27;;;;;;;36.30;24.60;;;;;;;12.39;68.21;102196.66;4983218;28;20422;-65
2022/04/16 07:05:54;;;;;;;34.60;24.23;;;;;;;12.36;67.78;102197.25;4980616;28;20062;-65
2022/04/16 07:08:21;;;;;;;34.22;23.75;;;;;;;12.33;68.05;102198.63;4959568;28;20061;-66
2022/04/16 07:10:53;;;;;;;33.67;24.00;;;;;;;12.36;68.24;102187.00;4975221;28;20046;-66
2022/04/16 07:13:20;;;;;;;47.90;25.02;;;;;;;12.24;68.35;102194.00;4975865;28;20062;-67
2022/04/16 07:15:48;;;;;;;33.47;24.73;;;;;;;12.27;68.70;102190.69;4959207;28;20070;-66
2022/04/16 07:18:15;;;;;;;36.45;24.67;;;;;;;12.37;67.51;102193.34;4960149;28;20058;-65
2022/04/16 07:20:43;;;;;;;36.85;25.92;;;;;;;12.41;67.91;102186.13;4976900;28;20051;-65
2022/04/16 07:23:10;;;;;;;35.30;24.70;;;;;;;12.55;67.57;102186.28;4952194;28;20399;-66
2022/04/16 07:25:37;;;;;;;40.75;25.30;;;;;;;12.37;67.43;102185.06;4956908;28;20050;-67
2022/04/16 07:28:05;;;;;;;35.05;24.75;;;;;;;12.53;67.54;102181.03;4959664;28;20402;-66
2022/04/16 07:30:32;;;;;;;35.30;23.90;;;;;;;12.64;66.97;102181.78;4974995;28;20057;-67
2022/04/16 07:32:59;;;;;;;34.05;25.55;;;;;;;12.38;67.53;102194.97;4975101;28;20055;-66
2022/04/16 07:35:28;;;;;;;37.28;25.02;;;;;;;12.70;66.82;102188.88;4970809;28;20042;-65
2022/04/16 07:37:58;;;;;;;39.47;25.88;;;;;;;12.34;67.58;102191.97;4971301;28;20054;-65
2022/04/16 07:40:26;;;;;;;33.60;23.80;;;;;;;12.51;68.17;102190.72;4958053;28;20065;-65
2022/04/16 07:42:53;;;;;;;32.67;24.23;;;;;;;12.78;66.54;102189.06;4971919;28;20791;-64
2022/04/16 07:45:22;;;;;;;35.47;25.02;;;;;;;13.09;65.40;102198.72;4955235;29;20061;-65
2022/04/16 07:47:49;;;;;;;35.38;24.27;;;;;;;12.63;66.57;102193.94;4972194;28;20046;-65
2022/04/16 07:50:16;;;;;;;39.60;25.25;;;;;;;12.75;66.18;102199.88;4959137;28;20058;-66
2022/04/16 07:52:45;;;;;;;36.13;24.48;;;;;;;12.91;65.96;102201.38;4943469;28;20454;-65
2022/04/16 07:55:14;;;;;;;30.90;23.00;;;;;;;12.79;65.43;102204.56;4968096;28;20047;-67
2022/04/16 07:57:42;;;;;;;30.80;23.50;;;;;;;12.91;65.77;102198.63;4957873;28;20062;-65
2022/04/16 08:00:10;;;;;;;36.13;24.02;;;;;;;13.14;64.94;102206.97;4958481;28;20061;-65
2022/04/16 08:02:38;;;;;;;36.13;23.60;;;;;;;13.48;64.10;102212.34;4976428;28;20053;-65
2022/04/16 08:05:06;;;;;;;35.25;23.45;;;;;;;13.45;62.87;102199.94;4973411;28;20058;-65
2022/04/16 08:07:34;;;;;;;36.53;23.45;;;;;;;13.18;64.49;102205.25;4976850;28;20059;-65
2022/04/16 08:10:02;;;;;;;34.70;24.60;;;;;;;13.46;63.86;102201.56;4967604;28;20054;-66
2022/04/16 08:12:29;;;;;;;31.95;23.67;;;;;;;13.14;65.02;102206.97;4974385;28;20055;-66
2022/04/16 08:14:57;;;;;;;36.30;24.30;;;;;;;13.09;65.32;102212.53;4972854;28;20062;-65
2022/04/16 08:17:24;;;;;;;29.65;22.20;;;;;;;13.35;65.74;102210.31;4944496;28;20050;-71
2022/04/16 08:19:52;;;;;;;32.15;22.90;;;;;;;13.60;65.42;102207.22;4947415;28;20051;-67
2022/04/16 08:22:21;;;;;;;35.25;23.33;;;;;;;13.79;65.34;102210.00;4976429;28;20051;-67
2022/04/16 08:27:35;;;;;;;32.92;23.85;;;;;;;13.53;65.20;102215.88;4958224;28;20313;-66
2022/04/16 08:30:03;;;;;;;34.45;24.50;;;;;;;13.72;64.19;102217.88;4971364;28;20498;-67
2022/04/16 08:32:37;;;;;;;39.08;22.83;;;;;;;13.99;64.04;102218.00;4973095;28;20055;-65
2022/04/16 08:35:05;;;;;;;28.85;21.65;;;;;;;14.14;62.91;102226.13;4965174;28;20043;-66
2022/04/16 08:37:32;;;;;;;31.95;21.50;;;;;;;14.64;62.19;102228.06;4963045;28;20054;-70
2022/04/16 08:40:00;;;;;;;30.52;20.40;;;;;;;14.50;61.39;102225.28;4958207;28;20050;-71
2022/04/16 08:42:27;;;;;;;32.95;20.65;;;;;;;14.81;61.24;102219.16;4969851;28;20055;-69
2022/04/16 08:44:54;;;;;;;24.00;18.75;;;;;;;15.07;59.11;102220.34;4958533;28;20050;-71
2022/04/16 08:47:22;;;;;;;28.20;18.60;;;;;;;14.72;58.84;102221.81;4956043;28;20560;-68
2022/04/16 08:49:49;;;;;;;28.17;21.13;;;;;;;14.33;59.74;102226.94;4966925;28;20054;-70
2022/04/16 08:52:17;;;;;;;27.58;19.00;;;;;;;14.73;60.28;102226.25;4972726;28;20062;-72
2022/04/16 08:54:44;;;;;;;27.42;19.15;;;;;;;14.99;58.60;102238.53;4974057;28;20051;-68
2022/04/16 08:57:12;;;;;;;26.02;19.23;;;;;;;14.47;59.38;102231.41;4958223;28;20062;-69
2022/04/16 08:59:39;;;;;;;24.27;17.13;;;;;;;14.87;59.47;102224.31;4957679;28;20066;-71
2022/04/16 09:02:07;;;;;;;26.70;19.60;;;;;;;15.15;58.22;102223.22;4975413;28;20524;-69
2022/04/16 09:04:34;;;;;;;27.00;19.35;;;;;;;15.19;58.24;102221.47;4974705;28;20050;-71
2022/04/16 09:07:03;;;;;;;30.83;21.33;;;;;;;14.53;59.84;102224.66;4963643;28;20055;-70
2022/04/16 09:09:30;;;;;;;30.92;20.80;;;;;;;14.75;60.04;102231.50;4940085;28;20445;-68
2022/04/16 09:11:58;;;;;;;27.55;20.92;;;;;;;14.60;59.87;102224.25;4957110;28;20059;-69
2022/04/16 09:14:45;;;;;;;29.13;19.10;;;;;;;15.24;59.04;102217.75;4970460;28;20054;-70
2022/04/16 09:17:16;;;;;;;25.58;19.17;;;;;;;14.95;58.07;102223.63;4975060;28;20055;-70
2022/04/16 09:19:57;;;;;;;24.95;18.60;;;;;;;14.81;58.73;102221.94;4974107;28;20054;-70
2022/04/16 09:22:30;;;;;;;;;;;;;;;14.92;58.67;102218.69;4974457;28;20065;-70
2022/04/16 09:24:59;;;;;;;25.27;19.00;;;;;;;14.72;58.65;102221.00;4962877;28;19949;-69
2022/04/16 09:27:26;;;;;;;26.42;19.02;;;;;;;14.89;58.84;102221.25;4975914;28;20119;-68
2022/04/16 09:29:54;;;;;;;28.17;19.70;;;;;;;14.95;58.12;102215.28;4973522;28;20055;-68
2022/04/16 09:32:25;;;;;;;26.13;18.60;;;;;;;15.19;58.22;102215.09;4965952;28;20043;-71
2022/04/16 09:34:52;;;;;;;26.95;19.50;;;;;;;15.16;58.18;102213.78;4971326;28;20051;-67
2022/04/16 09:37:23;;;;;;;25.05;18.05;;;;;;;15.38;58.33;102205.53;4974672;28;20529;-70
2022/04/16 09:39:51;;;;;;;28.60;21.13;;;;;;;15.41;57.08;102202.16;4929978;28;20066;-72
2022/04/16 09:42:27;;;;;;;28.30;20.77;;;;;;;15.56;57.51;102209.34;4957483;28;20054;-71
2022/04/16 09:44:55;;;;;;;31.42;20.90;;;;;;;14.98;58.62;102213.84;4952557;28;20062;-70
2022/04/16 09:47:23;;;;;;;27.40;19.58;;;;;;;15.38;58.90;102211.09;4968495;28;20054;-69
2022/04/16 09:49:53;;;;;;;27.52;19.60;;;;;;;14.98;58.38;102211.06;4967478;28;20050;-71
2022/04/16 09:52:22;;;;;;;30.65;19.38;;;;;;;15.37;58.29;102205.84;4956191;28;20046;-70
2022/04/16 09:54:50;;;;;;;28.95;19.92;;;;;;;15.25;58.52;102209.16;4966935;28;20039;-70
2022/04/16 09:57:21;;;;;;;25.75;18.65;;;;;;;15.37;58.33;102197.53;4960886;28;20047;-69
2022/04/16 09:59:51;;;;;;;25.77;17.60;;;;;;;15.47;57.15;102205.66;4929315;28;20067;-67
2022/04/16 10:02:18;;;;;;;25.88;17.85;;;;;;;15.51;56.96;102203.91;4958212;28;20051;-69
2022/04/16 10:04:46;;;;;;;24.95;17.00;;;;;;;15.82;56.96;102196.56;4960076;28;20054;-74
2022/04/16 10:07:17;;;;;;;60.03;19.02;;;;;;;16.22;56.72;102194.75;4972225;28;20051;-77
2022/04/16 10:09:46;;;;;;;25.00;16.25;;;;;;;16.02;54.18;102187.75;4939664;28;20059;-74
2022/04/16 10:15:08;;;;;;;20.38;14.13;;;;;;;16.23;53.16;102188.88;4941829;28;20063;-74
2022/04/16 10:17:39;;;;;;;45.90;15.32;;;;;;;16.51;53.98;102198.78;4979383;28;20038;-74
2022/04/16 10:20:09;;;;;;;21.00;14.77;;;;;;;16.67;51.90;102199.19;4963242;28;20051;-73
2022/04/16 10:22:37;;;;;;;72.60;18.15;;;;;;;16.41;52.40;102196.22;4972336;28;20051;-72
2022/04/16 10:25:05;;;;;;;45.45;16.17;;;;;;;16.31;52.66;102202.03;4955044;28;20074;-72
2022/04/16 10:27:42;;;;;;;45.40;14.00;;;;;;;16.66;52.16;102198.41;4950305;28;20054;-73
2022/04/16 10:30:16;;;;;;;35.28;14.35;;;;;;;16.51;51.79;102193.22;4972196;28;20059;-74
2022/04/16 10:32:45;;;;;;;21.70;13.57;;;;;;;16.60;52.62;102193.25;4938433;28;20051;-73
2022/04/16 10:35:14;;;;;;;18.95;13.40;;;;;;;16.69;51.55;102196.91;4957449;28;20047;-74
2022/04/16 10:37:44;;;;;;;21.05;13.43;;;;;;;16.88;52.58;102181.63;4978434;28;20058;-75
2022/04/16 10:40:23;;;;;;;23.33;13.23;;;;;;;16.99;51.82;102179.41;4961545;28;20046;-72
2022/04/16 10:42:59;;;;;;;19.75;14.27;;;;;;;16.80;51.26;102182.44;4952758;28;20050;-73
2022/04/16 10:45:26;;;;;;;27.38;12.48;;;;;;;17.01;51.39;102173.50;4978081;28;20058;-70
2022/04/16 10:47:56;;;;;;;21.50;13.30;;;;;;;17.30;49.78;102176.53;4974718;28;20070;-72
2022/04/16 10:50:24;;;;;;;16.83;12.40;;;;;;;17.07;49.38;102175.03;4974293;28;20057;-68
2022/04/16 10:52:52;;;;;;;17.90;12.15;;;;;;;17.00;50.35;102180.22;4967868;28;20050;-71
2022/04/16 10:55:30;;;;;;;15.95;9.93;;;;;;;16.82;47.83;102182.91;4968492;28;20062;-70
2022/04/16 10:58:06;;;;;;;14.13;10.32;;;;;;;16.61;48.92;102187.41;4974288;28;20059;-70
2022/04/16 11:00:44;;;;;;;14.20;9.65;;;;;;;16.63;46.63;102193.44;4965408;28;20070;-73
2022/04/16 11:03:27;;;;;;;19.73;11.98;;;;;;;16.76;48.17;102183.38;4949979;28;20047;-71
2022/04/16 11:06:04;;;;;;;15.40;10.35;;;;;;;17.10;47.65;102189.13;4976816;28;20057;-70
2022/04/16 11:08:36;;;;;;;15.05;9.98;;;;;;;17.04;46.75;102186.78;4977745;28;20586;-71
2022/04/16 11:11:06;;;;;;;17.77;9.60;;;;;;;17.04;47.12;102175.63;4970302;28;20058;-71
2022/04/16 11:13:35;;;;;;;18.55;10.40;;;;;;;17.24;47.38;102169.50;4977591;28;20054;-70
2022/04/16 11:16:04;;;;;;;13.27;9.93;;;;;;;17.42;46.66;102173.97;4977382;28;20050;-68
2022/04/16 11:18:44;;;;;;;17.45;11.02;;;;;;;17.47;46.83;102159.94;4968237;28;20104;-69
2022/04/16 11:21:23;;;;;;;15.77;10.75;;;;;;;17.09;46.53;102175.50;4974514;28;20150;-69
2022/04/16 11:23:52;;;;;;;12.70;9.02;;;;;;;16.98;44.69;102168.59;4975465;28;20051;-67
2022/04/16 11:34:52;;;;;;;11.13;7.82;;;;;;;17.48;43.84;102169.91;4976774;28;20061;-69
2022/04/16 11:37:32;;;;;;;10.38;8.02;;;;;;;17.65;43.41;102175.53;4952822;28;20054;-68
2022/04/16 11:40:05;;;;;;;11.95;8.07;;;;;;;17.37;42.79;102180.50;4969512;28;20047;-70
2022/04/16 11:42:33;;;;;;;11.80;7.68;;;;;;;17.39;42.43;102181.00;4966968;28;20051;-70
2022/04/16 11:45:02;;;;;;;10.98;7.10;;;;;;;17.63;41.90;102175.03;4974401;28;20055;-70